sensor_id;sensor_type;location;lat;lon;timestamp;pressure;altitude;pressure_sealevel;temperature;humidity
71915;BME280;60387;49.994;14.660;2023-12-20T00:00:10;97337.78;;;11.23;41.58
71915;BME280;60387;49.994;14.660;2023-12-20T00:02:43;97332.97;;;11.20;43.10
71915;BME280;60387;49.994;14.660;2023-12-20T00:05:17;97340.09;;;11.07;43.10
71915;BME280;60387;49.994;14.660;2023-12-20T00:07:50;97343.75;;;11.03;44.60
71915;BME280;60387;49.994;14.660;2023-12-20T00:10:23;97352.81;;;10.98;44.02
71915;BME280;60387;49.994;14.660;2023-12-20T00:12:56;97344.03;;;10.93;43.90
71915;BME280;60387;49.994;14.660;2023-12-20T00:15:30;97344.66;;;10.90;44.60
71915;BME280;60387;49.994;14.660;2023-12-20T00:18:03;97320.22;;;10.81;44.59
71915;BME280;60387;49.994;14.660;2023-12-20T00:20:36;97342.25;;;10.80;45.94
71915;BME280;60387;49.994;14.660;2023-12-20T00:23:10;97333.94;;;10.76;45.91
71915;BME280;60387;49.994;14.660;2023-12-20T00:25:43;97335.97;;;10.71;46.10
71915;BME280;60387;49.994;14.660;2023-12-20T00:28:16;97334.97;;;10.67;47.03
71915;BME280;60387;49.994;14.660;2023-12-20T00:30:49;97332.72;;;10.60;46.55
71915;BME280;60387;49.994;14.660;2023-12-20T00:33:23;97335.25;;;10.57;47.17
71915;BME280;60387;49.994;14.660;2023-12-20T00:35:56;97335.25;;;10.57;47.49
71915;BME280;60387;49.994;14.660;2023-12-20T00:38:29;97331.25;;;10.54;47.60
71915;BME280;60387;49.994;14.660;2023-12-20T00:41:03;97337.59;;;10.50;47.47
71915;BME280;60387;49.994;14.660;2023-12-20T00:43:36;97324.06;;;10.50;48.29
71915;BME280;60387;49.994;14.660;2023-12-20T00:46:09;97328.03;;;10.44;48.88
71915;BME280;60387;49.994;14.660;2023-12-20T00:48:42;97327.50;;;10.42;47.81
71915;BME280;60387;49.994;14.660;2023-12-20T00:51:16;97321.91;;;10.38;47.61
71915;BME280;60387;49.994;14.660;2023-12-20T00:53:50;97321.63;;;10.40;48.08
71915;BME280;60387;49.994;14.660;2023-12-20T00:56:23;97312.19;;;10.37;49.13
71915;BME280;60387;49.994;14.660;2023-12-20T00:58:56;97319.16;;;10.30;47.88
71915;BME280;60387;49.994;14.660;2023-12-20T01:01:30;97318.34;;;10.29;48.43
71915;BME280;60387;49.994;14.660;2023-12-20T01:04:03;97309.13;;;10.30;48.38
71915;BME280;60387;49.994;14.660;2023-12-20T01:06:36;97307.84;;;10.28;48.82
71915;BME280;60387;49.994;14.660;2023-12-20T01:09:10;97294.31;;;10.28;49.46
71915;BME280;60387;49.994;14.660;2023-12-20T01:11:43;97272.28;;;10.21;49.26
71915;BME280;60387;49.994;14.660;2023-12-20T01:14:16;97286.94;;;10.20;49.88
71915;BME280;60387;49.994;14.660;2023-12-20T01:16:50;97281.66;;;10.15;50.35
71915;BME280;60387;49.994;14.660;2023-12-20T01:19:24;97286.09;;;10.11;49.35
71915;BME280;60387;49.994;14.660;2023-12-20T01:21:57;97281.78;;;10.10;49.25
71915;BME280;60387;49.994;14.660;2023-12-20T01:24:31;97272.66;;;10.06;50.95
71915;BME280;60387;49.994;14.660;2023-12-20T01:27:04;97269.97;;;10.06;49.92
71915;BME280;60387;49.994;14.660;2023-12-20T01:29:37;97277.59;;;10.04;49.91
71915;BME280;60387;49.994;14.660;2023-12-20T01:32:11;97273.28;;;10.03;51.75
71915;BME280;60387;49.994;14.660;2023-12-20T01:34:44;97256.53;;;10.01;50.43
71915;BME280;60387;49.994;14.660;2023-12-20T01:37:17;97264.47;;;9.97;49.76
71915;BME280;60387;49.994;14.660;2023-12-20T01:39:50;97251.72;;;9.98;51.61
71915;BME280;60387;49.994;14.660;2023-12-20T01:42:24;97249.31;;;9.96;51.50
71915;BME280;60387;49.994;14.660;2023-12-20T01:44:57;97244.84;;;9.92;50.95
71915;BME280;60387;49.994;14.660;2023-12-20T01:47:30;97246.28;;;9.89;50.77
71915;BME280;60387;49.994;14.660;2023-12-20T01:50:05;97235.28;;;9.86;52.59
71915;BME280;60387;49.994;14.660;2023-12-20T01:52:38;97223.94;;;9.84;51.41
71915;BME280;60387;49.994;14.660;2023-12-20T01:55:12;97216.94;;;9.83;51.85
71915;BME280;60387;49.994;14.660;2023-12-20T01:57:46;97216.94;;;9.83;51.96
71915;BME280;60387;49.994;14.660;2023-12-20T02:00:21;97211.84;;;9.81;52.21
71915;BME280;60387;49.994;14.660;2023-12-20T02:02:55;97208.16;;;9.77;52.24
71915;BME280;60387;49.994;14.660;2023-12-20T02:05:32;97220.25;;;9.80;52.57
71915;BME280;60387;49.994;14.660;2023-12-20T02:08:06;97218.97;;;9.77;54.22
71915;BME280;60387;49.994;14.660;2023-12-20T02:10:39;97211.00;;;9.72;53.53
71915;BME280;60387;49.994;14.660;2023-12-20T02:13:13;97212.41;;;9.70;54.89
71915;BME280;60387;49.994;14.660;2023-12-20T02:15:49;97220.03;;;9.68;54.21
71915;BME280;60387;49.994;14.660;2023-12-20T02:18:23;97214.25;;;9.61;54.10
71915;BME280;60387;49.994;14.660;2023-12-20T02:20:56;97213.63;;;9.64;52.31
71915;BME280;60387;49.994;14.660;2023-12-20T02:23:30;97208.22;;;9.64;52.90
71915;BME280;60387;49.994;14.660;2023-12-20T02:26:04;97213.81;;;9.67;53.80
71915;BME280;60387;49.994;14.660;2023-12-20T02:28:38;97213.00;;;9.67;54.06
71915;BME280;60387;49.994;14.660;2023-12-20T02:31:11;97212.84;;;9.63;54.16
71915;BME280;60387;49.994;14.660;2023-12-20T02:33:44;97220.94;;;9.63;53.94
71915;BME280;60387;49.994;14.660;2023-12-20T02:36:17;97205.03;;;9.62;54.99
71915;BME280;60387;49.994;14.660;2023-12-20T02:38:51;97207.72;;;9.62;55.08
71915;BME280;60387;49.994;14.660;2023-12-20T02:41:24;97206.13;;;9.61;54.54
71915;BME280;60387;49.994;14.660;2023-12-20T02:43:57;97209.63;;;9.61;55.39
71915;BME280;60387;49.994;14.660;2023-12-20T02:46:30;97208.03;;;9.60;53.66
71915;BME280;60387;49.994;14.660;2023-12-20T02:49:04;97211.53;;;9.61;55.83
71915;BME280;60387;49.994;14.660;2023-12-20T02:51:37;97209.13;;;9.59;55.41
71915;BME280;60387;49.994;14.660;2023-12-20T02:54:10;97207.06;;;9.56;54.60
71915;BME280;60387;49.994;14.660;2023-12-20T02:56:44;97207.25;;;9.60;54.83
71915;BME280;60387;49.994;14.660;2023-12-20T02:59:17;97205.31;;;9.60;54.63
71915;BME280;60387;49.994;14.660;2023-12-20T03:01:50;97206.13;;;9.61;55.55
71915;BME280;60387;49.994;14.660;2023-12-20T03:04:23;97212.13;;;9.58;55.17
71915;BME280;60387;49.994;14.660;2023-12-20T03:06:57;97205.47;;;9.55;55.33
71915;BME280;60387;49.994;14.660;2023-12-20T03:09:30;97201.94;;;9.55;55.84
71915;BME280;60387;49.994;14.660;2023-12-20T03:12:03;97206.56;;;9.54;56.34
71915;BME280;60387;49.994;14.660;2023-12-20T03:14:37;97207.66;;;9.53;57.15
71915;BME280;60387;49.994;14.660;2023-12-20T03:17:10;97208.09;;;9.47;56.55
71915;BME280;60387;49.994;14.660;2023-12-20T03:19:43;97208.09;;;9.47;55.96
71915;BME280;60387;49.994;14.660;2023-12-20T03:22:17;97208.09;;;9.47;55.75
71915;BME280;60387;49.994;14.660;2023-12-20T03:24:50;97208.09;;;9.47;56.15
71915;BME280;60387;49.994;14.660;2023-12-20T03:27:23;97201.38;;;9.44;56.34
71915;BME280;60387;49.994;14.660;2023-12-20T03:29:56;97202.50;;;9.43;56.21
71915;BME280;60387;49.994;14.660;2023-12-20T03:32:30;97202.81;;;9.42;56.30
71915;BME280;60387;49.994;14.660;2023-12-20T03:35:03;97192.59;;;9.39;57.35
71915;BME280;60387;49.994;14.660;2023-12-20T03:37:37;97199.78;;;9.43;57.11
71915;BME280;60387;49.994;14.660;2023-12-20T03:40:10;97191.19;;;9.42;56.60
71915;BME280;60387;49.994;14.660;2023-12-20T03:42:43;97185.59;;;9.38;57.52
71915;BME280;60387;49.994;14.660;2023-12-20T03:45:16;97202.31;;;9.40;57.82
71915;BME280;60387;49.994;14.660;2023-12-20T03:47:50;97195.91;;;9.36;57.64
71915;BME280;60387;49.994;14.660;2023-12-20T03:50:23;97194.31;;;9.35;57.04
71915;BME280;60387;49.994;14.660;2023-12-20T03:52:57;97190.03;;;9.34;56.62
71915;BME280;60387;49.994;14.660;2023-12-20T03:55:30;97190.50;;;9.36;58.04
71915;BME280;60387;49.994;14.660;2023-12-20T03:58:03;97186.50;;;9.34;58.11
71915;BME280;60387;49.994;14.660;2023-12-20T04:00:36;97185.72;;;9.33;59.01
71915;BME280;60387;49.994;14.660;2023-12-20T04:03:10;97182.50;;;9.31;57.89
71915;BME280;60387;49.994;14.660;2023-12-20T04:05:43;97188.25;;;9.30;58.04
71915;BME280;60387;49.994;14.660;2023-12-20T04:08:16;97192.84;;;9.29;57.78
71915;BME280;60387;49.994;14.660;2023-12-20T04:10:49;97197.75;;;9.27;58.15
71915;BME280;60387;49.994;14.660;2023-12-20T04:13:23;97184.25;;;9.27;57.28
71915;BME280;60387;49.994;14.660;2023-12-20T04:15:56;97189.66;;;9.27;56.96
71915;BME280;60387;49.994;14.660;2023-12-20T04:18:29;97193.13;;;9.28;56.19
71915;BME280;60387;49.994;14.660;2023-12-20T04:21:03;97183.25;;;9.23;56.38
71915;BME280;60387;49.994;14.660;2023-12-20T04:23:36;97204.75;;;9.28;56.42
71915;BME280;60387;49.994;14.660;2023-12-20T04:26:10;97196.16;;;9.26;57.45
71915;BME280;60387;49.994;14.660;2023-12-20T04:28:43;97199.66;;;9.27;57.62
71915;BME280;60387;49.994;14.660;2023-12-20T04:31:16;97199.66;;;9.27;56.83
71915;BME280;60387;49.994;14.660;2023-12-20T04:33:50;97205.66;;;9.24;57.09
71915;BME280;60387;49.994;14.660;2023-12-20T04:36:23;97201.19;;;9.19;57.84
71915;BME280;60387;49.994;14.660;2023-12-20T04:38:56;97197.66;;;9.19;56.76
71915;BME280;60387;49.994;14.660;2023-12-20T04:41:30;97191.00;;;9.16;57.13
71915;BME280;60387;49.994;14.660;2023-12-20T04:44:03;97201.81;;;9.16;58.08
71915;BME280;60387;49.994;14.660;2023-12-20T04:46:36;97195.09;;;9.14;57.39
71915;BME280;60387;49.994;14.660;2023-12-20T04:49:09;97192.50;;;9.09;56.95
71915;BME280;60387;49.994;14.660;2023-12-20T04:51:43;97207.00;;;9.13;57.25
71915;BME280;60387;49.994;14.660;2023-12-20T04:54:16;97205.09;;;9.13;56.39
71915;BME280;60387;49.994;14.660;2023-12-20T04:56:49;97200.50;;;9.14;56.86
71915;BME280;60387;49.994;14.660;2023-12-20T04:59:22;97199.69;;;9.13;57.25
71915;BME280;60387;49.994;14.660;2023-12-20T05:01:56;97204.59;;;9.11;57.27
71915;BME280;60387;49.994;14.660;2023-12-20T05:04:29;97209.19;;;9.11;57.73
71915;BME280;60387;49.994;14.660;2023-12-20T05:07:02;97199.00;;;9.08;57.77
71915;BME280;60387;49.994;14.660;2023-12-20T05:09:36;97194.72;;;9.07;57.42
71915;BME280;60387;49.994;14.660;2023-12-20T05:12:09;97200.13;;;9.07;58.19
71915;BME280;60387;49.994;14.660;2023-12-20T05:14:42;97206.63;;;9.06;58.01
71915;BME280;60387;49.994;14.660;2023-12-20T05:17:15;97203.44;;;9.04;57.41
71915;BME280;60387;49.994;14.660;2023-12-20T05:19:49;97203.44;;;9.04;56.96
71915;BME280;60387;49.994;14.660;2023-12-20T05:22:22;97195.31;;;9.04;58.07
71915;BME280;60387;49.994;14.660;2023-12-20T05:24:55;97213.44;;;9.03;57.63
71915;BME280;60387;49.994;14.660;2023-12-20T05:27:28;97207.81;;;9.00;57.44
71915;BME280;60387;49.994;14.660;2023-12-20T05:30:02;97217.84;;;8.99;57.69
71915;BME280;60387;49.994;14.660;2023-12-20T05:32:35;97213.22;;;9.00;57.14
71915;BME280;60387;49.994;14.660;2023-12-20T05:35:09;97217.84;;;8.99;57.61
71915;BME280;60387;49.994;14.660;2023-12-20T05:37:42;97225.44;;;8.97;56.87
71915;BME280;60387;49.994;14.660;2023-12-20T05:40:15;97229.72;;;8.98;56.60
71915;BME280;60387;49.994;14.660;2023-12-20T05:42:49;97218.91;;;8.98;56.63
71915;BME280;60387;49.994;14.660;2023-12-20T05:45:22;97231.66;;;8.98;57.15
71915;BME280;60387;49.994;14.660;2023-12-20T05:47:55;97214.63;;;8.97;57.10
71915;BME280;60387;49.994;14.660;2023-12-20T05:50:28;97217.31;;;8.97;57.04
71915;BME280;60387;49.994;14.660;2023-12-20T05:53:02;97223.84;;;8.96;57.12
71915;BME280;60387;49.994;14.660;2023-12-20T05:55:35;97215.25;;;8.94;57.13
71915;BME280;60387;49.994;14.660;2023-12-20T05:58:08;97212.06;;;8.92;57.62
71915;BME280;60387;49.994;14.660;2023-12-20T06:00:42;97201.47;;;8.82;57.09
71915;BME280;60387;49.994;14.660;2023-12-20T06:03:15;97216.94;;;8.90;56.74
71915;BME280;60387;49.994;14.660;2023-12-20T06:05:48;97215.84;;;8.91;56.54
71915;BME280;60387;49.994;14.660;2023-12-20T06:08:22;97214.22;;;8.90;57.24
71915;BME280;60387;49.994;14.660;2023-12-20T06:10:55;97216.63;;;8.92;57.41
71915;BME280;60387;49.994;14.660;2023-12-20T06:13:28;97228.34;;;8.87;57.39
71915;BME280;60387;49.994;14.660;2023-12-20T06:16:02;97225.66;;;8.87;57.57
71915;BME280;60387;49.994;14.660;2023-12-20T06:18:35;97220.88;;;8.84;57.65
71915;BME280;60387;49.994;14.660;2023-12-20T06:21:08;97237.06;;;8.84;56.89
71915;BME280;60387;49.994;14.660;2023-12-20T06:23:42;97235.75;;;8.82;57.25
71915;BME280;60387;49.994;14.660;2023-12-20T06:26:15;97234.16;;;8.81;56.79
71915;BME280;60387;49.994;14.660;2023-12-20T06:28:48;97235.06;;;8.76;57.82
71915;BME280;60387;49.994;14.660;2023-12-20T06:31:21;97238.88;;;8.75;58.36
71915;BME280;60387;49.994;14.660;2023-12-20T06:33:55;97241.06;;;8.73;58.07
71915;BME280;60387;49.994;14.660;2023-12-20T06:36:28;97238.97;;;8.70;58.01
71915;BME280;60387;49.994;14.660;2023-12-20T06:39:01;97235.78;;;8.68;58.42
71915;BME280;60387;49.994;14.660;2023-12-20T06:41:35;97230.66;;;8.67;57.90
71915;BME280;60387;49.994;14.660;2023-12-20T06:44:08;97238.28;;;8.65;58.23
71915;BME280;60387;49.994;14.660;2023-12-20T06:46:41;97245.25;;;8.66;58.46
71915;BME280;60387;49.994;14.660;2023-12-20T06:49:14;97248.25;;;8.64;57.69
71915;BME280;60387;49.994;14.660;2023-12-20T06:51:48;97252.06;;;8.63;57.77
71915;BME280;60387;49.994;14.660;2023-12-20T06:54:21;97265.06;;;8.61;58.38
71915;BME280;60387;49.994;14.660;2023-12-20T06:56:54;97261.06;;;8.59;58.71
71915;BME280;60387;49.994;14.660;2023-12-20T06:59:28;97267.06;;;8.56;58.37
71915;BME280;60387;49.994;14.660;2023-12-20T07:02:01;97266.84;;;8.52;58.70
71915;BME280;60387;49.994;14.660;2023-12-20T07:04:39;97274.06;;;8.57;57.93
71915;BME280;60387;49.994;14.660;2023-12-20T07:07:12;97276.84;;;8.52;58.91
71915;BME280;60387;49.994;14.660;2023-12-20T07:09:45;97280.84;;;8.54;58.40
71915;BME280;60387;49.994;14.660;2023-12-20T07:12:19;97288.44;;;8.52;58.68
71915;BME280;60387;49.994;14.660;2023-12-20T07:14:52;97296.56;;;8.52;58.84
71915;BME280;60387;49.994;14.660;2023-12-20T07:17:25;97303.06;;;8.51;58.22
71915;BME280;60387;49.994;14.660;2023-12-20T07:19:58;97306.25;;;8.53;58.17
71915;BME280;60387;49.994;14.660;2023-12-20T07:22:33;97318.63;;;8.54;57.80
71915;BME280;60387;49.994;14.660;2023-12-20T07:25:07;97320.25;;;8.55;58.71
71915;BME280;60387;49.994;14.660;2023-12-20T07:27:40;97312.94;;;8.56;57.76
71915;BME280;60387;49.994;14.660;2023-12-20T07:30:14;97312.06;;;8.60;57.95
71915;BME280;60387;49.994;14.660;2023-12-20T07:32:47;97312.06;;;8.60;58.33
71915;BME280;60387;49.994;14.660;2023-12-20T07:35:21;97322.03;;;8.60;58.67
71915;BME280;60387;49.994;14.660;2023-12-20T07:37:54;97324.53;;;8.56;58.39
71915;BME280;60387;49.994;14.660;2023-12-20T07:40:27;97318.56;;;8.59;58.47
71915;BME280;60387;49.994;14.660;2023-12-20T07:43:00;97330.16;;;8.60;58.46
71915;BME280;60387;49.994;14.660;2023-12-20T07:45:34;97334.47;;;8.61;58.35
71915;BME280;60387;49.994;14.660;2023-12-20T07:48:07;97340.44;;;8.58;58.71
71915;BME280;60387;49.994;14.660;2023-12-20T07:50:41;97338.25;;;8.60;58.09
71915;BME280;60387;49.994;14.660;2023-12-20T07:53:14;97330.47;;;8.58;57.88
71915;BME280;60387;49.994;14.660;2023-12-20T07:55:47;97340.03;;;8.64;57.50
71915;BME280;60387;49.994;14.660;2023-12-20T07:58:20;97338.66;;;8.67;57.90
71915;BME280;60387;49.994;14.660;2023-12-20T08:00:54;97337.88;;;8.66;58.12
71915;BME280;60387;49.994;14.660;2023-12-20T08:03:27;97344.88;;;8.67;58.00
71915;BME280;60387;49.994;14.660;2023-12-20T08:06:00;97345.88;;;8.71;58.16
71915;BME280;60387;49.994;14.660;2023-12-20T08:08:34;97337.47;;;8.73;58.43
71915;BME280;60387;49.994;14.660;2023-12-20T08:11:07;97339.34;;;8.72;58.17
71915;BME280;60387;49.994;14.660;2023-12-20T08:13:40;97344.47;;;8.74;58.04
71915;BME280;60387;49.994;14.660;2023-12-20T08:16:14;97336.09;;;8.75;58.21
71915;BME280;60387;49.994;14.660;2023-12-20T08:18:47;97339.88;;;8.74;57.91
71915;BME280;60387;49.994;14.660;2023-12-20T08:21:20;97339.28;;;8.77;58.05
71915;BME280;60387;49.994;14.660;2023-12-20T08:23:54;97333.38;;;8.75;58.32
71915;BME280;60387;49.994;14.660;2023-12-20T08:26:27;97342.78;;;8.78;57.83
71915;BME280;60387;49.994;14.660;2023-12-20T08:29:00;97337.88;;;8.80;57.80
71915;BME280;60387;49.994;14.660;2023-12-20T08:31:34;97342.97;;;8.81;57.49
71915;BME280;60387;49.994;14.660;2023-12-20T08:34:07;97339.78;;;8.79;58.42
71915;BME280;60387;49.994;14.660;2023-12-20T08:36:40;97350.00;;;8.82;59.02
71915;BME280;60387;49.994;14.660;2023-12-20T08:39:14;97359.16;;;8.81;58.50
71915;BME280;60387;49.994;14.660;2023-12-20T08:41:47;97365.09;;;8.83;58.05
71915;BME280;60387;49.994;14.660;2023-12-20T08:44:20;97366.69;;;8.84;57.50
71915;BME280;60387;49.994;14.660;2023-12-20T08:46:53;97381.19;;;8.88;57.98
71915;BME280;60387;49.994;14.660;2023-12-20T08:49:27;97373.28;;;8.92;57.52
71915;BME280;60387;49.994;14.660;2023-12-20T08:52:00;97370.31;;;8.93;57.71
71915;BME280;60387;49.994;14.660;2023-12-20T08:54:33;97370.50;;;8.97;57.71
71915;BME280;60387;49.994;14.660;2023-12-20T08:57:06;97371.91;;;8.94;57.68
71915;BME280;60387;49.994;14.660;2023-12-20T08:59:40;97375.09;;;8.96;57.44
71915;BME280;60387;49.994;14.660;2023-12-20T09:02:14;97379.72;;;8.96;58.48
71915;BME280;60387;49.994;14.660;2023-12-20T09:04:47;97371.69;;;8.91;57.88
71915;BME280;60387;49.994;14.660;2023-12-20T09:07:22;97362.97;;;8.94;58.38
71915;BME280;60387;49.994;14.660;2023-12-20T09:09:55;97367.09;;;8.91;58.21
71915;BME280;60387;49.994;14.660;2023-12-20T09:12:31;97363.88;;;8.89;57.91
71915;BME280;60387;49.994;14.660;2023-12-20T09:15:05;97363.59;;;8.91;58.47
71915;BME280;60387;49.994;14.660;2023-12-20T09:17:39;97364.69;;;8.90;58.47
71915;BME280;60387;49.994;14.660;2023-12-20T09:20:12;97359.28;;;8.90;58.04
71915;BME280;60387;49.994;14.660;2023-12-20T09:22:45;97353.28;;;8.93;58.20
71915;BME280;60387;49.994;14.660;2023-12-20T09:25:19;97355.69;;;8.94;58.57
71915;BME280;60387;49.994;14.660;2023-12-20T09:27:52;97355.41;;;8.96;58.21
71915;BME280;60387;49.994;14.660;2023-12-20T09:30:25;97362.41;;;8.97;58.60
71915;BME280;60387;49.994;14.660;2023-12-20T09:32:59;97358.31;;;8.99;58.61
71915;BME280;60387;49.994;14.660;2023-12-20T09:35:32;97356.88;;;9.02;58.17
71915;BME280;60387;49.994;14.660;2023-12-20T09:38:05;97357.69;;;9.02;57.75
71915;BME280;60387;49.994;14.660;2023-12-20T09:40:41;97361.72;;;9.05;58.54
71915;BME280;60387;49.994;14.660;2023-12-20T09:43:15;97356.59;;;9.03;58.34
71915;BME280;60387;49.994;14.660;2023-12-20T09:45:50;97371.00;;;9.12;58.07
71915;BME280;60387;49.994;14.660;2023-12-20T09:48:26;97361.31;;;9.11;57.89
71915;BME280;60387;49.994;14.660;2023-12-20T09:51:00;97374.72;;;9.16;57.68
71915;BME280;60387;49.994;14.660;2023-12-20T09:53:36;97380.63;;;9.18;57.53
71915;BME280;60387;49.994;14.660;2023-12-20T09:56:11;97372.72;;;9.22;57.91
71915;BME280;60387;49.994;14.660;2023-12-20T09:58:45;97366.31;;;9.18;57.34
71915;BME280;60387;49.994;14.660;2023-12-20T10:01:19;97367.31;;;9.22;57.67
71915;BME280;60387;49.994;14.660;2023-12-20T10:03:54;97368.09;;;9.22;57.63
71915;BME280;60387;49.994;14.660;2023-12-20T10:06:28;97361.91;;;9.22;57.77
71915;BME280;60387;49.994;14.660;2023-12-20T10:09:01;97357.00;;;9.24;57.77
71915;BME280;60387;49.994;14.660;2023-12-20T10:11:38;97355.09;;;9.24;57.33
71915;BME280;60387;49.994;14.660;2023-12-20T10:14:11;97362.00;;;9.30;57.55
71915;BME280;60387;49.994;14.660;2023-12-20T10:16:45;97367.09;;;9.32;57.98
71915;BME280;60387;49.994;14.660;2023-12-20T10:19:19;97356.28;;;9.32;57.98
71915;BME280;60387;49.994;14.660;2023-12-20T10:21:52;97347.91;;;9.33;57.40
71915;BME280;60387;49.994;14.660;2023-12-20T10:24:28;97354.91;;;9.34;57.79
71915;BME280;60387;49.994;14.660;2023-12-20T10:27:03;97346.88;;;9.29;57.81
71915;BME280;60387;49.994;14.660;2023-12-20T10:29:38;97352.00;;;9.31;58.08
71915;BME280;60387;49.994;14.660;2023-12-20T10:32:24;97344.69;;;9.31;58.03
71915;BME280;60387;49.994;14.660;2023-12-20T10:34:58;97346.78;;;9.34;57.27
71915;BME280;60387;49.994;14.660;2023-12-20T10:37:31;97338.34;;;9.36;57.33
71915;BME280;60387;49.994;14.660;2023-12-20T10:40:08;97343.69;;;9.41;56.87
71915;BME280;60387;49.994;14.660;2023-12-20T10:42:42;97336.88;;;9.43;57.65
71915;BME280;60387;49.994;14.660;2023-12-20T10:45:15;97334.47;;;9.42;57.39
71915;BME280;60387;49.994;14.660;2023-12-20T10:47:50;97334.25;;;9.38;58.00
71915;BME280;60387;49.994;14.660;2023-12-20T10:50:23;97330.94;;;9.41;57.72
71915;BME280;60387;49.994;14.660;2023-12-20T10:52:57;97316.44;;;9.37;58.17
71915;BME280;60387;49.994;14.660;2023-12-20T10:55:31;97323.66;;;9.42;57.81
71915;BME280;60387;49.994;14.660;2023-12-20T10:58:07;97315.81;;;9.40;57.88
71915;BME280;60387;49.994;14.660;2023-12-20T11:00:41;97310.41;;;9.40;57.65
71915;BME280;60387;49.994;14.660;2023-12-20T11:03:17;97321.63;;;9.47;57.62
71915;BME280;60387;49.994;14.660;2023-12-20T11:06:01;97316.13;;;9.52;57.66
71915;BME280;60387;49.994;14.660;2023-12-20T11:08:51;97313.63;;;9.55;57.51
71915;BME280;60387;49.994;14.660;2023-12-20T11:11:34;97304.06;;;9.58;57.19
71915;BME280;60387;49.994;14.660;2023-12-20T11:14:15;97285.97;;;9.58;57.63
71915;BME280;60387;49.994;14.660;2023-12-20T11:17:05;97293.63;;;9.65;57.49
71915;BME280;60387;49.994;14.660;2023-12-20T11:22:31;97277.78;;;9.72;57.20
71915;BME280;60387;49.994;14.660;2023-12-20T11:25:09;97282.28;;;9.76;57.14
71915;BME280;60387;49.994;14.660;2023-12-20T11:27:42;97286.66;;;9.86;57.27
71915;BME280;60387;49.994;14.660;2023-12-20T11:30:16;97279.78;;;10.02;57.61
71915;BME280;60387;49.994;14.660;2023-12-20T11:32:49;97277.56;;;10.26;57.46
71915;BME280;60387;49.994;14.660;2023-12-20T11:35:22;97271.94;;;10.44;56.44
71915;BME280;60387;49.994;14.660;2023-12-20T11:37:57;97265.94;;;10.56;55.68
71915;BME280;60387;49.994;14.660;2023-12-20T11:40:33;97265.97;;;10.64;55.56
71915;BME280;60387;49.994;14.660;2023-12-20T11:43:06;97262.06;;;10.79;55.45
71915;BME280;60387;49.994;14.660;2023-12-20T11:45:49;97268.97;;;10.93;54.87
71915;BME280;60387;49.994;14.660;2023-12-20T11:48:22;97264.84;;;10.96;54.90
71915;BME280;60387;49.994;14.660;2023-12-20T11:50:56;97255.91;;;10.95;54.30
71915;BME280;60387;49.994;14.660;2023-12-20T11:53:29;97266.88;;;10.90;53.84
71915;BME280;60387;49.994;14.660;2023-12-20T11:56:04;97273.22;;;10.86;53.80
71915;BME280;60387;49.994;14.660;2023-12-20T11:58:38;97271.91;;;10.75;53.94
71915;BME280;60387;49.994;14.660;2023-12-20T12:01:12;97269.84;;;10.72;53.41
71915;BME280;60387;49.994;14.660;2023-12-20T12:03:46;97258.78;;;10.60;53.78
71915;BME280;60387;49.994;14.660;2023-12-20T12:06:19;97257.34;;;10.54;53.46
71915;BME280;60387;49.994;14.660;2023-12-20T12:08:54;97265.13;;;10.47;54.51
71915;BME280;60387;49.994;14.660;2023-12-20T12:11:27;97262.34;;;10.38;54.21
71915;BME280;60387;49.994;14.660;2023-12-20T12:14:01;97254.69;;;10.32;54.80
71915;BME280;60387;49.994;14.660;2023-12-20T12:16:34;97262.94;;;10.27;54.66
71915;BME280;60387;49.994;14.660;2023-12-20T12:19:07;97268.97;;;10.24;55.41
71915;BME280;60387;49.994;14.660;2023-12-20T12:22:09;97265.28;;;10.20;56.07
71915;BME280;60387;49.994;14.660;2023-12-20T12:24:44;97274.25;;;10.29;55.48
71915;BME280;60387;49.994;14.660;2023-12-20T12:27:17;97266.03;;;10.42;55.85
71915;BME280;60387;49.994;14.660;2023-12-20T12:30:02;97255.00;;;10.61;55.71
71915;BME280;60387;49.994;14.660;2023-12-20T12:32:36;97253.78;;;10.84;55.07
71915;BME280;60387;49.994;14.660;2023-12-20T12:35:10;97245.88;;;10.96;53.71
71915;BME280;60387;49.994;14.660;2023-12-20T12:37:43;97251.78;;;11.06;53.85
71915;BME280;60387;49.994;14.660;2023-12-20T12:40:17;97245.75;;;11.18;53.66
71915;BME280;60387;49.994;14.660;2023-12-20T12:42:50;97239.88;;;11.33;53.06
71915;BME280;60387;49.994;14.660;2023-12-20T12:45:23;97245.47;;;11.45;52.25
71915;BME280;60387;49.994;14.660;2023-12-20T12:47:57;97235.41;;;11.54;51.91
71915;BME280;60387;49.994;14.660;2023-12-20T12:50:31;97241.66;;;11.63;51.81
71915;BME280;60387;49.994;14.660;2023-12-20T12:53:04;97244.88;;;11.73;51.39
71915;BME280;60387;49.994;14.660;2023-12-20T12:55:37;97242.16;;;11.73;50.75
71915;BME280;60387;49.994;14.660;2023-12-20T12:58:11;97238.16;;;11.71;50.63
71915;BME280;60387;49.994;14.660;2023-12-20T13:00:45;97234.19;;;11.68;50.52
71915;BME280;60387;49.994;14.660;2023-12-20T13:03:18;97221.75;;;11.59;50.12
71915;BME280;60387;49.994;14.660;2023-12-20T13:05:51;97230.00;;;11.54;50.73
71915;BME280;60387;49.994;14.660;2023-12-20T13:08:24;97232.69;;;11.54;50.22
71915;BME280;60387;49.994;14.660;2023-12-20T13:10:58;97220.75;;;11.55;50.78
71915;BME280;60387;49.994;14.660;2023-12-20T13:13:31;97231.91;;;11.53;51.17
71915;BME280;60387;49.994;14.660;2023-12-20T13:16:04;97217.53;;;11.53;50.57
71915;BME280;60387;49.994;14.660;2023-12-20T13:18:38;97229.22;;;11.53;51.13
71915;BME280;60387;49.994;14.660;2023-12-20T13:21:11;97225.69;;;11.44;49.98
71915;BME280;60387;49.994;14.660;2023-12-20T13:23:44;97214.69;;;11.41;50.35
71915;BME280;60387;49.994;14.660;2023-12-20T13:26:17;97212.59;;;11.29;49.49
71915;BME280;60387;49.994;14.660;2023-12-20T13:28:51;97211.31;;;11.18;49.40
71915;BME280;60387;49.994;14.660;2023-12-20T13:31:24;97222.13;;;11.10;49.59
71915;BME280;60387;49.994;14.660;2023-12-20T13:33:57;97219.25;;;10.98;50.36